sensor_id;sensor_type;location;lat;lon;timestamp;temperature;humidity
1786;DHT22;890;48.158;11.540;2023-02-01T00:02:08;5.30;73.60
1786;DHT22;890;48.158;11.540;2023-02-01T00:04:34;5.20;73.50
1786;DHT22;890;48.158;11.540;2023-02-01T00:07:00;5.30;73.60
1786;DHT22;890;48.158;11.540;2023-02-01T00:09:26;6.50;74.70
1786;DHT22;890;48.158;11.540;2023-02-01T00:11:52;5.30;73.40
1786;DHT22;890;48.158;11.540;2023-02-01T00:14:18;5.30;73.30
1786;DHT22;890;48.158;11.540;2023-02-01T00:16:43;5.30;73.30
1786;DHT22;890;48.158;11.540;2023-02-01T00:19:14;5.40;73.30
1786;DHT22;890;48.158;11.540;2023-02-01T00:21:40;5.30;73.00
1786;DHT22;890;48.158;11.540;2023-02-01T00:24:06;5.30;72.90
1786;DHT22;890;48.158;11.540;2023-02-01T00:26:34;5.40;73.00
1786;DHT22;890;48.158;11.540;2023-02-01T00:29:01;5.40;72.90
1786;DHT22;890;48.158;11.540;2023-02-01T00:31:26;5.40;72.90
1786;DHT22;890;48.158;11.540;2023-02-01T00:33:52;5.40;73.00
1786;DHT22;890;48.158;11.540;2023-02-01T00:36:18;5.40;73.10
1786;DHT22;890;48.158;11.540;2023-02-01T00:38:44;5.30;73.20
1786;DHT22;890;48.158;11.540;2023-02-01T00:41:14;5.30;73.50
1786;DHT22;890;48.158;11.540;2023-02-01T00:43:41;5.30;73.90
1786;DHT22;890;48.158;11.540;2023-02-01T00:46:06;5.20;74.10
1786;DHT22;890;48.158;11.540;2023-02-01T00:48:32;5.20;74.50
1786;DHT22;890;48.158;11.540;2023-02-01T00:51:06;5.10;74.70
1786;DHT22;890;48.158;11.540;2023-02-01T00:53:33;5.00;75.40
1786;DHT22;890;48.158;11.540;2023-02-01T00:55:59;5.10;75.80
1786;DHT22;890;48.158;11.540;2023-02-01T00:58:25;5.00;75.90
1786;DHT22;890;48.158;11.540;2023-02-01T01:01:02;5.10;76.30
1786;DHT22;890;48.158;11.540;2023-02-01T01:03:30;4.90;76.60
1786;DHT22;890;48.158;11.540;2023-02-01T01:05:59;5.00;76.90
1786;DHT22;890;48.158;11.540;2023-02-01T01:08:24;4.90;77.30
1786;DHT22;890;48.158;11.540;2023-02-01T01:10:50;4.80;77.30
1786;DHT22;890;48.158;11.540;2023-02-01T01:13:16;4.80;77.50
1786;DHT22;890;48.158;11.540;2023-02-01T01:15:41;4.80;77.70
1786;DHT22;890;48.158;11.540;2023-02-01T01:18:08;4.70;77.80
1786;DHT22;890;48.158;11.540;2023-02-01T01:20:38;4.70;78.10
1786;DHT22;890;48.158;11.540;2023-02-01T01:23:04;4.70;78.40
1786;DHT22;890;48.158;11.540;2023-02-01T01:25:30;4.80;78.40
1786;DHT22;890;48.158;11.540;2023-02-01T01:27:56;4.80;78.40
1786;DHT22;890;48.158;11.540;2023-02-01T01:30:22;4.80;78.30
1786;DHT22;890;48.158;11.540;2023-02-01T01:32:48;4.80;78.30
1786;DHT22;890;48.158;11.540;2023-02-01T01:35:14;4.80;78.50
1786;DHT22;890;48.158;11.540;2023-02-01T01:37:39;4.80;78.50
1786;DHT22;890;48.158;11.540;2023-02-01T01:40:06;4.90;78.70
1786;DHT22;890;48.158;11.540;2023-02-01T01:42:40;4.80;78.90
1786;DHT22;890;48.158;11.540;2023-02-01T01:45:28;4.80;79.20
1786;DHT22;890;48.158;11.540;2023-02-01T01:48:01;4.70;79.40
1786;DHT22;890;48.158;11.540;2023-02-01T01:50:35;4.80;79.50
1786;DHT22;890;48.158;11.540;2023-02-01T01:53:04;4.80;79.90
1786;DHT22;890;48.158;11.540;2023-02-01T01:55:32;4.70;79.90
1786;DHT22;890;48.158;11.540;2023-02-01T01:58:04;4.70;80.30
1786;DHT22;890;48.158;11.540;2023-02-01T02:00:31;4.70;80.60
1786;DHT22;890;48.158;11.540;2023-02-01T02:03:01;4.70;80.60
1786;DHT22;890;48.158;11.540;2023-02-01T02:05:29;4.70;81.10
1786;DHT22;890;48.158;11.540;2023-02-01T02:07:58;4.70;81.30
1786;DHT22;890;48.158;11.540;2023-02-01T02:10:25;4.60;81.50
1786;DHT22;890;48.158;11.540;2023-02-01T02:13:11;4.50;81.50
1786;DHT22;890;48.158;11.540;2023-02-01T02:16:04;4.50;81.70
1786;DHT22;890;48.158;11.540;2023-02-01T02:32:52;4.40;82.70
1786;DHT22;890;48.158;11.540;2023-02-01T02:35:33;3.30;81.80
1786;DHT22;890;48.158;11.540;2023-02-01T02:43:48;4.50;83.10
1786;DHT22;890;48.158;11.540;2023-02-01T02:46:44;4.40;83.20
1786;DHT22;890;48.158;11.540;2023-02-01T02:49:41;4.40;83.20
1786;DHT22;890;48.158;11.540;2023-02-01T02:52:17;4.40;83.20
1786;DHT22;890;48.158;11.540;2023-02-01T02:55:12;4.50;83.60
1786;DHT22;890;48.158;11.540;2023-02-01T02:57:40;3.40;82.30
1786;DHT22;890;48.158;11.540;2023-02-01T03:00:30;4.50;83.60
1786;DHT22;890;48.158;11.540;2023-02-01T03:03:16;4.50;83.60
1786;DHT22;890;48.158;11.540;2023-02-01T03:06:00;4.50;83.60
1786;DHT22;890;48.158;11.540;2023-02-01T03:08:27;4.60;83.80
1786;DHT22;890;48.158;11.540;2023-02-01T03:10:55;4.60;83.60
1786;DHT22;890;48.158;11.540;2023-02-01T03:14:08;4.60;83.70
1786;DHT22;890;48.158;11.540;2023-02-01T03:16:21;4.60;83.60
1786;DHT22;890;48.158;11.540;2023-02-01T03:19:06;4.70;83.60
1786;DHT22;890;48.158;11.540;2023-02-01T03:21:43;4.60;83.50
1786;DHT22;890;48.158;11.540;2023-02-01T03:24:14;4.60;83.50
1786;DHT22;890;48.158;11.540;2023-02-01T03:26:43;4.70;83.50
1786;DHT22;890;48.158;11.540;2023-02-01T03:29:14;4.80;83.40
1786;DHT22;890;48.158;11.540;2023-02-01T03:31:41;4.80;83.20
1786;DHT22;890;48.158;11.540;2023-02-01T03:34:07;4.80;83.10
1786;DHT22;890;48.158;11.540;2023-02-01T03:36:39;4.80;83.00
1786;DHT22;890;48.158;11.540;2023-02-01T03:42:04;4.80;82.90
1786;DHT22;890;48.158;11.540;2023-02-01T03:44:38;6.20;84.20
1786;DHT22;890;48.158;11.540;2023-02-01T03:47:13;4.90;82.90
1786;DHT22;890;48.158;11.540;2023-02-01T03:52:13;4.90;82.70
1786;DHT22;890;48.158;11.540;2023-02-01T03:54:40;4.90;82.60
1786;DHT22;890;48.158;11.540;2023-02-01T03:57:13;4.90;82.60
1786;DHT22;890;48.158;11.540;2023-02-01T03:59:43;4.80;82.60
1786;DHT22;890;48.158;11.540;2023-02-01T04:02:09;4.90;82.70
1786;DHT22;890;48.158;11.540;2023-02-01T04:04:37;4.90;82.50
1786;DHT22;890;48.158;11.540;2023-02-01T04:07:03;4.90;82.50
1786;DHT22;890;48.158;11.540;2023-02-01T04:09:28;4.90;82.40
1786;DHT22;890;48.158;11.540;2023-02-01T04:11:54;4.90;82.40
1786;DHT22;890;48.158;11.540;2023-02-01T04:14:20;4.90;82.40
1786;DHT22;890;48.158;11.540;2023-02-01T04:16:45;4.90;82.50
1786;DHT22;890;48.158;11.540;2023-02-01T04:19:11;4.90;82.40
1786;DHT22;890;48.158;11.540;2023-02-01T04:21:37;4.90;82.20
1786;DHT22;890;48.158;11.540;2023-02-01T04:24:03;4.80;82.20
1786;DHT22;890;48.158;11.540;2023-02-01T04:26:28;4.90;82.20
1786;DHT22;890;48.158;11.540;2023-02-01T04:28:54;4.90;82.20
1786;DHT22;890;48.158;11.540;2023-02-01T04:31:20;4.90;82.20
1786;DHT22;890;48.158;11.540;2023-02-01T04:33:52;4.80;82.10
1786;DHT22;890;48.158;11.540;2023-02-01T04:36:19;4.80;82.00
1786;DHT22;890;48.158;11.540;2023-02-01T04:38:51;4.90;82.20
1786;DHT22;890;48.158;11.540;2023-02-01T04:41:17;4.90;82.00
1786;DHT22;890;48.158;11.540;2023-02-01T04:43:48;4.90;81.90
1786;DHT22;890;48.158;11.540;2023-02-01T04:46:15;4.90;81.80
1786;DHT22;890;48.158;11.540;2023-02-01T04:48:41;4.90;81.70
1786;DHT22;890;48.158;11.540;2023-02-01T04:51:07;4.90;81.60
1786;DHT22;890;48.158;11.540;2023-02-01T04:53:33;5.00;81.70
1786;DHT22;890;48.158;11.540;2023-02-01T04:55:58;5.00;81.50
1786;DHT22;890;48.158;11.540;2023-02-01T04:58:24;4.90;81.40
1786;DHT22;890;48.158;11.540;2023-02-01T05:00:49;5.00;81.60
1786;DHT22;890;48.158;11.540;2023-02-01T05:03:16;6.80;83.20
1786;DHT22;890;48.158;11.540;2023-02-01T05:05:42;5.00;81.40
1786;DHT22;890;48.158;11.540;2023-02-01T05:08:08;5.00;81.30
1786;DHT22;890;48.158;11.540;2023-02-01T05:10:33;4.90;81.10
1786;DHT22;890;48.158;11.540;2023-02-01T05:12:59;4.90;81.20
1786;DHT22;890;48.158;11.540;2023-02-01T05:15:43;4.90;81.10
1786;DHT22;890;48.158;11.540;2023-02-01T05:18:11;5.00;81.20
1786;DHT22;890;48.158;11.540;2023-02-01T05:20:37;4.90;81.00
1786;DHT22;890;48.158;11.540;2023-02-01T05:23:03;4.90;81.30
1786;DHT22;890;48.158;11.540;2023-02-01T05:25:28;4.90;81.30
1786;DHT22;890;48.158;11.540;2023-02-01T05:27:54;4.90;81.30
1786;DHT22;890;48.158;11.540;2023-02-01T05:30:20;4.90;81.10
1786;DHT22;890;48.158;11.540;2023-02-01T05:32:49;4.90;81.10
1786;DHT22;890;48.158;11.540;2023-02-01T05:35:15;4.80;81.00
1786;DHT22;890;48.158;11.540;2023-02-01T05:37:41;4.90;81.00
1786;DHT22;890;48.158;11.540;2023-02-01T05:40:07;4.90;80.90
1786;DHT22;890;48.158;11.540;2023-02-01T05:42:32;4.90;80.80
1786;DHT22;890;48.158;11.540;2023-02-01T05:44:58;4.90;80.80
1786;DHT22;890;48.158;11.540;2023-02-01T05:47:24;4.90;80.80
1786;DHT22;890;48.158;11.540;2023-02-01T05:49:49;4.90;80.70
1786;DHT22;890;48.158;11.540;2023-02-01T05:52:15;4.90;80.70
1786;DHT22;890;48.158;11.540;2023-02-01T05:54:45;4.90;80.70
1786;DHT22;890;48.158;11.540;2023-02-01T05:57:12;5.00;80.80
1786;DHT22;890;48.158;11.540;2023-02-01T05:59:38;5.00;80.70
1786;DHT22;890;48.158;11.540;2023-02-01T06:02:07;5.00;80.70
1786;DHT22;890;48.158;11.540;2023-02-01T06:04:33;5.00;80.70
1786;DHT22;890;48.158;11.540;2023-02-01T06:06:58;5.00;80.60
1786;DHT22;890;48.158;11.540;2023-02-01T06:09:24;5.00;80.60
1786;DHT22;890;48.158;11.540;2023-02-01T06:11:49;5.00;80.70
1786;DHT22;890;48.158;11.540;2023-02-01T06:14:15;4.90;80.60
1786;DHT22;890;48.158;11.540;2023-02-01T06:16:41;4.90;80.60
1786;DHT22;890;48.158;11.540;2023-02-01T06:19:06;4.90;81.40
1786;DHT22;890;48.158;11.540;2023-02-01T06:21:32;4.90;80.70
1786;DHT22;890;48.158;11.540;2023-02-01T06:23:59;5.00;80.80
1786;DHT22;890;48.158;11.540;2023-02-01T06:26:24;5.00;80.60
1786;DHT22;890;48.158;11.540;2023-02-01T06:28:50;5.00;80.40
1786;DHT22;890;48.158;11.540;2023-02-01T06:31:16;5.00;80.40
1786;DHT22;890;48.158;11.540;2023-02-01T06:33:42;5.00;80.40
1786;DHT22;890;48.158;11.540;2023-02-01T06:36:09;5.00;80.50
1786;DHT22;890;48.158;11.540;2023-02-01T06:38:37;5.00;80.50
1786;DHT22;890;48.158;11.540;2023-02-01T06:41:04;5.00;80.40
1786;DHT22;890;48.158;11.540;2023-02-01T06:43:29;5.00;80.50
1786;DHT22;890;48.158;11.540;2023-02-01T06:46:03;5.00;80.50
1786;DHT22;890;48.158;11.540;2023-02-01T06:48:30;5.00;80.30
1786;DHT22;890;48.158;11.540;2023-02-01T06:50:57;5.00;80.30
1786;DHT22;890;48.158;11.540;2023-02-01T06:53:22;5.00;80.30
1786;DHT22;890;48.158;11.540;2023-02-01T06:55:53;5.10;80.30
1786;DHT22;890;48.158;11.540;2023-02-01T06:58:19;5.10;80.10
1786;DHT22;890;48.158;11.540;2023-02-01T07:00:45;5.10;80.20
1786;DHT22;890;48.158;11.540;2023-02-01T07:03:12;5.10;80.10
1786;DHT22;890;48.158;11.540;2023-02-01T07:05:38;5.10;80.10
1786;DHT22;890;48.158;11.540;2023-02-01T07:08:04;5.10;80.00
1786;DHT22;890;48.158;11.540;2023-02-01T07:10:29;5.10;80.00
1786;DHT22;890;48.158;11.540;2023-02-01T07:12:58;5.10;80.00
1786;DHT22;890;48.158;11.540;2023-02-01T07:15:24;5.10;79.90
1786;DHT22;890;48.158;11.540;2023-02-01T07:17:49;5.20;79.90
1786;DHT22;890;48.158;11.540;2023-02-01T07:20:16;5.30;80.10
1786;DHT22;890;48.158;11.540;2023-02-01T07:22:41;5.10;79.90
1786;DHT22;890;48.158;11.540;2023-02-01T07:25:07;5.20;79.90
1786;DHT22;890;48.158;11.540;2023-02-01T07:27:36;5.30;79.90
1786;DHT22;890;48.158;11.540;2023-02-01T07:30:03;5.20;79.70
1786;DHT22;890;48.158;11.540;2023-02-01T07:32:30;5.20;79.60
1786;DHT22;890;48.158;11.540;2023-02-01T07:34:56;5.20;79.50
1786;DHT22;890;48.158;11.540;2023-02-01T07:37:22;5.30;79.50
1786;DHT22;890;48.158;11.540;2023-02-01T07:39:49;5.30;79.30
1786;DHT22;890;48.158;11.540;2023-02-01T07:42:15;5.20;79.20
1786;DHT22;890;48.158;11.540;2023-02-01T07:44:40;5.20;79.30
1786;DHT22;890;48.158;11.540;2023-02-01T07:47:06;5.30;79.30
1786;DHT22;890;48.158;11.540;2023-02-01T07:49:32;5.20;79.20
1786;DHT22;890;48.158;11.540;2023-02-01T07:51:57;5.30;79.20
1786;DHT22;890;48.158;11.540;2023-02-01T07:54:23;5.30;79.10
1786;DHT22;890;48.158;11.540;2023-02-01T07:56:49;5.30;79.00
1786;DHT22;890;48.158;11.540;2023-02-01T07:59:14;5.40;79.00
1786;DHT22;890;48.158;11.540;2023-02-01T08:01:41;5.40;78.90
1786;DHT22;890;48.158;11.540;2023-02-01T08:04:10;5.40;78.80
1786;DHT22;890;48.158;11.540;2023-02-01T08:06:36;5.40;78.60
1786;DHT22;890;48.158;11.540;2023-02-01T08:09:03;5.50;78.60
1786;DHT22;890;48.158;11.540;2023-02-01T08:11:29;5.50;78.40
1786;DHT22;890;48.158;11.540;2023-02-01T08:13:55;5.50;78.30
1786;DHT22;890;48.158;11.540;2023-02-01T08:16:22;5.60;78.30
1786;DHT22;890;48.158;11.540;2023-02-01T08:18:49;5.60;78.70
1786;DHT22;890;48.158;11.540;2023-02-01T08:21:26;5.60;77.90
1786;DHT22;890;48.158;11.540;2023-02-01T08:23:53;5.70;77.60
1786;DHT22;890;48.158;11.540;2023-02-01T08:26:21;5.70;77.50
1786;DHT22;890;48.158;11.540;2023-02-01T08:28:50;5.70;77.20
1786;DHT22;890;48.158;11.540;2023-02-01T08:31:19;5.70;77.00
1786;DHT22;890;48.158;11.540;2023-02-01T08:33:53;5.70;76.90
1786;DHT22;890;48.158;11.540;2023-02-01T08:36:19;5.70;76.70
1786;DHT22;890;48.158;11.540;2023-02-01T08:38:45;5.70;76.50
1786;DHT22;890;48.158;11.540;2023-02-01T08:41:14;5.80;76.50
1786;DHT22;890;48.158;11.540;2023-02-01T08:43:40;5.80;76.20
1786;DHT22;890;48.158;11.540;2023-02-01T08:46:07;5.90;76.20
1786;DHT22;890;48.158;11.540;2023-02-01T08:48:33;5.90;75.80
1786;DHT22;890;48.158;11.540;2023-02-01T08:51:08;6.00;75.90
1786;DHT22;890;48.158;11.540;2023-02-01T08:53:34;6.00;75.50
1786;DHT22;890;48.158;11.540;2023-02-01T08:56:01;6.00;75.50
1786;DHT22;890;48.158;11.540;2023-02-01T08:58:27;6.10;75.20
1786;DHT22;890;48.158;11.540;2023-02-01T09:00:53;6.00;74.80
1786;DHT22;890;48.158;11.540;2023-02-01T09:03:18;6.00;74.70
1786;DHT22;890;48.158;11.540;2023-02-01T09:05:44;6.10;74.80
1786;DHT22;890;48.158;11.540;2023-02-01T09:08:10;6.10;74.70
1786;DHT22;890;48.158;11.540;2023-02-01T09:10:39;6.10;74.70
1786;DHT22;890;48.158;11.540;2023-02-01T09:13:07;6.10;74.20
1786;DHT22;890;48.158;11.540;2023-02-01T09:15:33;6.20;74.20
1786;DHT22;890;48.158;11.540;2023-02-01T09:17:59;6.20;74.20
1786;DHT22;890;48.158;11.540;2023-02-01T09:20:24;6.30;74.10
1786;DHT22;890;48.158;11.540;2023-02-01T09:22:52;6.30;74.00
1786;DHT22;890;48.158;11.540;2023-02-01T09:25:18;6.30;73.90
1786;DHT22;890;48.158;11.540;2023-02-01T09:27:44;6.30;73.60
1786;DHT22;890;48.158;11.540;2023-02-01T09:30:10;6.30;73.50
1786;DHT22;890;48.158;11.540;2023-02-01T09:32:37;6.30;73.60
1786;DHT22;890;48.158;11.540;2023-02-01T09:35:03;6.40;73.60
1786;DHT22;890;48.158;11.540;2023-02-01T09:37:28;6.40;73.60
1786;DHT22;890;48.158;11.540;2023-02-01T09:39:54;6.40;73.30
1786;DHT22;890;48.158;11.540;2023-02-01T09:42:41;6.50;73.40
1786;DHT22;890;48.158;11.540;2023-02-01T09:47:50;6.50;73.40
1786;DHT22;890;48.158;11.540;2023-02-01T09:50:20;6.60;73.10
1786;DHT22;890;48.158;11.540;2023-02-01T09:53:02;6.60;73.30
1786;DHT22;890;48.158;11.540;2023-02-01T09:55:36;6.50;72.90
1786;DHT22;890;48.158;11.540;2023-02-01T09:58:33;6.60;73.30
1786;DHT22;890;48.158;11.540;2023-02-01T10:01:02;6.50;72.60
1786;DHT22;890;48.158;11.540;2023-02-01T10:03:31;6.60;72.80
1786;DHT22;890;48.158;11.540;2023-02-01T10:06:30;6.60;72.70
1786;DHT22;890;48.158;11.540;2023-02-01T10:09:20;6.50;72.40
1786;DHT22;890;48.158;11.540;2023-02-01T10:14:32;6.60;72.50
1786;DHT22;890;48.158;11.540;2023-02-01T10:17:39;6.60;72.60
1786;DHT22;890;48.158;11.540;2023-02-01T10:20:27;6.50;72.40
1786;DHT22;890;48.158;11.540;2023-02-01T10:29:18;6.20;72.00
1786;DHT22;890;48.158;11.540;2023-02-01T10:31:44;6.40;73.20
1786;DHT22;890;48.158;11.540;2023-02-01T10:34:23;6.50;72.70
1786;DHT22;890;48.158;11.540;2023-02-01T10:39:24;6.40;72.50
1786;DHT22;890;48.158;11.540;2023-02-01T10:41:50;6.50;72.60
1786;DHT22;890;48.158;11.540;2023-02-01T10:44:19;6.50;72.70
1786;DHT22;890;48.158;11.540;2023-02-01T10:46:46;6.60;72.80
1786;DHT22;890;48.158;11.540;2023-02-01T10:49:20;6.60;72.60
1786;DHT22;890;48.158;11.540;2023-02-01T10:52:15;6.50;72.50
1786;DHT22;890;48.158;11.540;2023-02-01T10:54:42;6.50;72.40
1786;DHT22;890;48.158;11.540;2023-02-01T10:57:10;6.60;72.50
1786;DHT22;890;48.158;11.540;2023-02-01T10:59:36;6.60;72.30
1786;DHT22;890;48.158;11.540;2023-02-01T11:02:16;6.70;72.40
1786;DHT22;890;48.158;11.540;2023-02-01T11:04:44;6.60;72.20
1786;DHT22;890;48.158;11.540;2023-02-01T11:09:51;6.60;72.20
1786;DHT22;890;48.158;11.540;2023-02-01T11:12:28;6.60;72.20
1786;DHT22;890;48.158;11.540;2023-02-01T11:15:03;6.60;72.10
1786;DHT22;890;48.158;11.540;2023-02-01T11:17:46;6.70;72.30
1786;DHT22;890;48.158;11.540;2023-02-01T11:20:18;6.60;72.20
1786;DHT22;890;48.158;11.540;2023-02-01T11:22:53;6.60;72.20
1786;DHT22;890;48.158;11.540;2023-02-01T11:25:20;6.60;72.10
1786;DHT22;890;48.158;11.540;2023-02-01T11:27:48;6.50;72.10
1786;DHT22;890;48.158;11.540;2023-02-01T11:30:22;6.70;72.40
1786;DHT22;890;48.158;11.540;2023-02-01T11:32:51;6.60;72.00
1786;DHT22;890;48.158;11.540;2023-02-01T11:35:19;6.50;71.90
1786;DHT22;890;48.158;11.540;2023-02-01T11:37:54;6.40;71.80
1786;DHT22;890;48.158;11.540;2023-02-01T11:42:55;6.40;72.20
1786;DHT22;890;48.158;11.540;2023-02-01T11:45:26;6.30;71.90
1786;DHT22;890;48.158;11.540;2023-02-01T11:47:53;6.30;71.90
1786;DHT22;890;48.158;11.540;2023-02-01T11:50:46;6.30;72.10
1786;DHT22;890;48.158;11.540;2023-02-01T12:09:47;6.20;73.60
1786;DHT22;890;48.158;11.540;2023-02-01T12:12:38;6.30;73.10
1786;DHT22;890;48.158;11.540;2023-02-01T12:20:52;6.30;72.80
1786;DHT22;890;48.158;11.540;2023-02-01T12:32:15;6.10;72.30
1786;DHT22;890;48.158;11.540;2023-02-01T12:37:35;6.00;72.40
1786;DHT22;890;48.158;11.540;2023-02-01T12:45:41;5.90;72.30
1786;DHT22;890;48.158;11.540;2023-02-01T12:51:12;5.80;72.30
1786;DHT22;890;48.158;11.540;2023-02-01T12:54:00;5.90;72.40
1786;DHT22;890;48.158;11.540;2023-02-01T12:56:38;5.90;72.40
1786;DHT22;890;48.158;11.540;2023-02-01T12:59:46;6.00;72.30
1786;DHT22;890;48.158;11.540;2023-02-01T13:02:30;5.90;72.00
1786;DHT22;890;48.158;11.540;2023-02-01T13:05:50;5.90;71.70
1786;DHT22;890;48.158;11.540;2023-02-01T13:08:12;6.00;72.20
1786;DHT22;890;48.158;11.540;2023-02-01T13:10:43;6.00;71.60
1786;DHT22;890;48.158;11.540;2023-02-01T13:16:21;6.10;71.30
1786;DHT22;890;48.158;11.540;2023-02-01T13:18:43;6.40;72.20
1786;DHT22;890;48.158;11.540;2023-02-01T13:21:27;6.10;71.30
1786;DHT22;890;48.158;11.540;2023-02-01T13:23:54;6.10;71.50
1786;DHT22;890;48.158;11.540;2023-02-01T13:26:20;6.20;71.50
1786;DHT22;890;48.158;11.540;2023-02-01T13:29:06;6.20;71.60
1786;DHT22;890;48.158;11.540;2023-02-01T13:41:04;6.10;72.00
1786;DHT22;890;48.158;11.540;2023-02-01T13:43:28;6.00;72.10
1786;DHT22;890;48.158;11.540;2023-02-01T13:45:57;6.10;72.30
1786;DHT22;890;48.158;11.540;2023-02-01T13:48:58;5.80;72.20
1786;DHT22;890;48.158;11.540;2023-02-01T13:51:40;6.10;72.40
1786;DHT22;890;48.158;11.540;2023-02-01T13:54:07;6.10;72.60
1786;DHT22;890;48.158;11.540;2023-02-01T13:56:48;6.10;72.80
1786;DHT22;890;48.158;11.540;2023-02-01T14:18:57;6.00;73.50
1786;DHT22;890;48.158;11.540;2023-02-01T14:26:52;6.00;73.40
1786;DHT22;890;48.158;11.540;2023-02-01T14:29:26;6.00;73.40
1786;DHT22;890;48.158;11.540;2023-02-01T14:32:06;6.00;73.30
1786;DHT22;890;48.158;11.540;2023-02-01T14:34:50;5.90;73.10
1786;DHT22;890;48.158;11.540;2023-02-01T14:47:49;5.90;72.80
1786;DHT22;890;48.158;11.540;2023-02-01T14:50:33;5.90;72.60
1786;DHT22;890;48.158;11.540;2023-02-01T14:55:53;5.90;72.20
1786;DHT22;890;48.158;11.540;2023-02-01T15:01:24;5.90;71.90
1786;DHT22;890;48.158;11.540;2023-02-01T15:04:09;5.90;72.00
1786;DHT22;890;48.158;11.540;2023-02-01T15:09:25;5.90;72.00
1786;DHT22;890;48.158;11.540;2023-02-01T15:17:20;5.90;72.20
1786;DHT22;890;48.158;11.540;2023-02-01T15:22:59;5.80;72.30
1786;DHT22;890;48.158;11.540;2023-02-01T15:25:32;5.90;72.30
1786;DHT22;890;48.158;11.540;2023-02-01T15:27:59;5.90;72.30
1786;DHT22;890;48.158;11.540;2023-02-01T15:30:30;5.90;72.30
1786;DHT22;890;48.158;11.540;2023-02-01T15:33:18;5.90;72.70
1786;DHT22;890;48.158;11.540;2023-02-01T15:36:11;5.80;72.60
1786;DHT22;890;48.158;11.540;2023-02-01T15:38:43;5.80;72.80
1786;DHT22;890;48.158;11.540;2023-02-01T15:41:14;5.70;73.00
1786;DHT22;890;48.158;11.540;2023-02-01T15:46:38;5.60;73.50
1786;DHT22;890;48.158;11.540;2023-02-01T15:49:05;5.50;73.40
1786;DHT22;890;48.158;11.540;2023-02-01T15:51:44;5.60;73.60
1786;DHT22;890;48.158;11.540;2023-02-01T15:55:04;5.60;73.60
1786;DHT22;890;48.158;11.540;2023-02-01T15:57:04;5.50;73.60
1786;DHT22;890;48.158;11.540;2023-02-01T16:00:07;5.60;73.70
1786;DHT22;890;48.158;11.540;2023-02-01T16:02:37;5.50;73.70
1786;DHT22;890;48.158;11.540;2023-02-01T16:05:36;5.60;73.90
1786;DHT22;890;48.158;11.540;2023-02-01T16:08:25;7.30;76.50
1786;DHT22;890;48.158;11.540;2023-02-01T16:10:59;5.40;74.10
1786;DHT22;890;48.158;11.540;2023-02-01T16:13:27;5.40;74.10
1786;DHT22;890;48.158;11.540;2023-02-01T16:15:52;5.40;74.20
1786;DHT22;890;48.158;11.540;2023-02-01T16:18:18;5.50;74.10
1786;DHT22;890;48.158;11.540;2023-02-01T16:20:45;5.50;73.90
1786;DHT22;890;48.158;11.540;2023-02-01T16:23:11;5.50;73.80
1786;DHT22;890;48.158;11.540;2023-02-01T16:25:38;5.40;73.70
1786;DHT22;890;48.158;11.540;2023-02-01T16:28:04;5.50;73.60
1786;DHT22;890;48.158;11.540;2023-02-01T16:30:31;5.50;73.50
1786;DHT22;890;48.158;11.540;2023-02-01T16:32:59;5.50;73.50
1786;DHT22;890;48.158;11.540;2023-02-01T16:35:30;5.50;73.20
1786;DHT22;890;48.158;11.540;2023-02-01T16:38:21;5.50;73.10
1786;DHT22;890;48.158;11.540;2023-02-01T16:40:48;5.40;72.80
1786;DHT22;890;48.158;11.540;2023-02-01T16:43:22;5.50;73.00
1786;DHT22;890;48.158;11.540;2023-02-01T16:45:49;5.40;72.90
1786;DHT22;890;48.158;11.540;2023-02-01T16:48:26;5.50;73.00
1786;DHT22;890;48.158;11.540;2023-02-01T16:50:56;5.40;72.80
1786;DHT22;890;48.158;11.540;2023-02-01T16:53:23;5.60;73.10
1786;DHT22;890;48.158;11.540;2023-02-01T16:55:49;5.50;73.00
1786;DHT22;890;48.158;11.540;2023-02-01T16:58:16;5.50;73.00
1786;DHT22;890;48.158;11.540;2023-02-01T17:00:42;5.60;73.10
1786;DHT22;890;48.158;11.540;2023-02-01T17:03:12;5.50;72.80
1786;DHT22;890;48.158;11.540;2023-02-01T17:05:43;5.50;72.80
1786;DHT22;890;48.158;11.540;2023-02-01T17:08:13;5.60;72.90
1786;DHT22;890;48.158;11.540;2023-02-01T17:10:40;5.60;72.70
1786;DHT22;890;48.158;11.540;2023-02-01T17:13:11;5.60;72.50
1786;DHT22;890;48.158;11.540;2023-02-01T17:15:38;5.60;72.40
1786;DHT22;890;48.158;11.540;2023-02-01T17:18:05;5.70;72.30
1786;DHT22;890;48.158;11.540;2023-02-01T17:20:32;5.80;72.10
1786;DHT22;890;48.158;11.540;2023-02-01T17:22:58;5.70;71.70
1786;DHT22;890;48.158;11.540;2023-02-01T17:25:24;5.70;71.60
1786;DHT22;890;48.158;11.540;2023-02-01T17:27:51;5.80;71.40
1786;DHT22;890;48.158;11.540;2023-02-01T17:30:17;5.70;71.20
1786;DHT22;890;48.158;11.540;2023-02-01T17:32:43;5.80;71.10
1786;DHT22;890;48.158;11.540;2023-02-01T17:35:21;5.70;70.90
1786;DHT22;890;48.158;11.540;2023-02-01T17:37:47;5.70;70.90
1786;DHT22;890;48.158;11.540;2023-02-01T17:40:13;5.70;70.90
1786;DHT22;890;48.158;11.540;2023-02-01T17:42:38;5.80;70.80
1786;DHT22;890;48.158;11.540;2023-02-01T17:45:18;5.70;70.50
1786;DHT22;890;48.158;11.540;2023-02-01T17:47:45;5.70;70.40
1786;DHT22;890;48.158;11.540;2023-02-01T17:50:12;5.80;70.40
1786;DHT22;890;48.158;11.540;2023-02-01T17:52:38;5.80;70.40
1786;DHT22;890;48.158;11.540;2023-02-01T17:55:24;5.80;70.30
1786;DHT22;890;48.158;11.540;2023-02-01T17:57:50;5.70;69.90
1786;DHT22;890;48.158;11.540;2023-02-01T18:00:17;5.80;70.10
1786;DHT22;890;48.158;11.540;2023-02-01T18:02:43;5.80;69.90
1786;DHT22;890;48.158;11.540;2023-02-01T18:07:46;5.70;69.50
1786;DHT22;890;48.158;11.540;2023-02-01T18:10:12;5.80;69.60
1786;DHT22;890;48.158;11.540;2023-02-01T18:12:38;5.80;69.50
1786;DHT22;890;48.158;11.540;2023-02-01T18:15:18;5.90;69.50
1786;DHT22;890;48.158;11.540;2023-02-01T18:17:44;5.80;69.10
1786;DHT22;890;48.158;11.540;2023-02-01T18:20:20;5.90;69.40
1786;DHT22;890;48.158;11.540;2023-02-01T18:22:47;5.80;69.10
1786;DHT22;890;48.158;11.540;2023-02-01T18:25:25;5.90;69.20
1786;DHT22;890;48.158;11.540;2023-02-01T18:27:52;5.80;69.00
1786;DHT22;890;48.158;11.540;2023-02-01T18:30:20;5.90;69.10
1786;DHT22;890;48.158;11.540;2023-02-01T18:32:46;6.20;69.40
1786;DHT22;890;48.158;11.540;2023-02-01T18:35:22;5.90;69.00
1786;DHT22;890;48.158;11.540;2023-02-01T18:37:49;5.90;68.90
1786;DHT22;890;48.158;11.540;2023-02-01T18:40:17;5.90;68.90
1786;DHT22;890;48.158;11.540;2023-02-01T18:42:44;5.90;68.80
1786;DHT22;890;48.158;11.540;2023-02-01T18:45:34;5.90;68.60
1786;DHT22;890;48.158;11.540;2023-02-01T18:48:00;5.90;68.40
1786;DHT22;890;48.158;11.540;2023-02-01T18:50:28;5.90;68.60
1786;DHT22;890;48.158;11.540;2023-02-01T18:52:55;5.90;68.40
1786;DHT22;890;48.158;11.540;2023-02-01T18:55:22;5.90;68.30
1786;DHT22;890;48.158;11.540;2023-02-01T18:57:48;5.90;68.20
1786;DHT22;890;48.158;11.540;2023-02-01T19:00:16;5.80;68.00
1786;DHT22;890;48.158;11.540;2023-02-01T19:02:42;5.90;68.20
1786;DHT22;890;48.158;11.540;2023-02-01T19:05:08;5.80;68.10
1786;DHT22;890;48.158;11.540;2023-02-01T19:07:35;5.80;67.90
1786;DHT22;890;48.158;11.540;2023-02-01T19:10:01;5.80;67.90
1786;DHT22;890;48.158;11.540;2023-02-01T19:12:28;5.80;67.80
1786;DHT22;890;48.158;11.540;2023-02-01T19:14:54;5.80;67.80
1786;DHT22;890;48.158;11.540;2023-02-01T19:17:20;5.80;67.90